sensor_id;sensor_type;location;lat;lon;timestamp;temperature;humidity
7196;DHT22;3639;51.308;5.624;2023-12-20T00:02:19;7.50;99.90
7196;DHT22;3639;51.308;5.624;2023-12-20T00:04:44;7.40;99.90
7196;DHT22;3639;51.308;5.624;2023-12-20T00:07:10;7.40;99.90
7196;DHT22;3639;51.308;5.624;2023-12-20T00:09:35;7.30;99.90
7196;DHT22;3639;51.308;5.624;2023-12-20T00:12:01;7.20;99.90
7196;DHT22;3639;51.308;5.624;2023-12-20T00:14:26;7.10;99.90
7196;DHT22;3639;51.308;5.624;2023-12-20T00:16:52;7.10;99.90
7196;DHT22;3639;51.308;5.624;2023-12-20T00:19:17;7.00;99.90
7196;DHT22;3639;51.308;5.624;2023-12-20T00:21:43;6.90;99.90
7196;DHT22;3639;51.308;5.624;2023-12-20T00:24:09;6.80;99.90
7196;DHT22;3639;51.308;5.624;2023-12-20T00:26:34;6.80;99.90
7196;DHT22;3639;51.308;5.624;2023-12-20T00:29:00;6.70;99.90
7196;DHT22;3639;51.308;5.624;2023-12-20T00:31:25;6.70;99.90
7196;DHT22;3639;51.308;5.624;2023-12-20T00:33:51;6.70;99.90
7196;DHT22;3639;51.308;5.624;2023-12-20T00:36:16;6.60;99.90
7196;DHT22;3639;51.308;5.624;2023-12-20T00:38:42;6.60;99.90
7196;DHT22;3639;51.308;5.624;2023-12-20T00:41:07;6.50;99.90
7196;DHT22;3639;51.308;5.624;2023-12-20T00:43:33;6.50;99.90
7196;DHT22;3639;51.308;5.624;2023-12-20T00:45:59;6.50;99.90
7196;DHT22;3639;51.308;5.624;2023-12-20T00:48:25;6.50;99.90
7196;DHT22;3639;51.308;5.624;2023-12-20T00:50:52;6.60;99.90
7196;DHT22;3639;51.308;5.624;2023-12-20T00:53:18;6.50;99.90
7196;DHT22;3639;51.308;5.624;2023-12-20T00:55:44;6.50;99.90
7196;DHT22;3639;51.308;5.624;2023-12-20T00:58:10;6.50;99.90
7196;DHT22;3639;51.308;5.624;2023-12-20T01:00:35;6.40;99.90
7196;DHT22;3639;51.308;5.624;2023-12-20T01:03:01;6.40;99.90
7196;DHT22;3639;51.308;5.624;2023-12-20T01:05:27;6.30;99.90
7196;DHT22;3639;51.308;5.624;2023-12-20T01:07:52;6.30;99.90
7196;DHT22;3639;51.308;5.624;2023-12-20T01:10:18;6.30;99.90
7196;DHT22;3639;51.308;5.624;2023-12-20T01:12:44;6.20;99.90
7196;DHT22;3639;51.308;5.624;2023-12-20T01:15:09;6.10;99.90
7196;DHT22;3639;51.308;5.624;2023-12-20T01:17:35;6.10;99.90
7196;DHT22;3639;51.308;5.624;2023-12-20T01:20:01;6.10;99.90
7196;DHT22;3639;51.308;5.624;2023-12-20T01:22:26;6.10;99.90
7196;DHT22;3639;51.308;5.624;2023-12-20T01:24:52;5.90;99.90
7196;DHT22;3639;51.308;5.624;2023-12-20T01:27:17;5.90;99.90
7196;DHT22;3639;51.308;5.624;2023-12-20T01:29:43;5.90;99.90
7196;DHT22;3639;51.308;5.624;2023-12-20T01:32:09;5.90;99.90
7196;DHT22;3639;51.308;5.624;2023-12-20T01:34:34;5.90;99.90
7196;DHT22;3639;51.308;5.624;2023-12-20T01:37:01;5.90;99.90
7196;DHT22;3639;51.308;5.624;2023-12-20T01:39:27;6.00;99.90
7196;DHT22;3639;51.308;5.624;2023-12-20T01:41:52;5.90;99.90
7196;DHT22;3639;51.308;5.624;2023-12-20T01:44:18;5.80;99.90
7196;DHT22;3639;51.308;5.624;2023-12-20T01:46:43;5.80;99.90
7196;DHT22;3639;51.308;5.624;2023-12-20T01:49:09;5.80;99.90
7196;DHT22;3639;51.308;5.624;2023-12-20T01:51:35;5.80;99.90
7196;DHT22;3639;51.308;5.624;2023-12-20T01:54:01;5.80;99.90
7196;DHT22;3639;51.308;5.624;2023-12-20T01:56:28;5.70;99.90
7196;DHT22;3639;51.308;5.624;2023-12-20T01:58:55;5.80;99.90
7196;DHT22;3639;51.308;5.624;2023-12-20T02:01:22;5.80;99.90
7196;DHT22;3639;51.308;5.624;2023-12-20T02:03:48;5.80;99.90
7196;DHT22;3639;51.308;5.624;2023-12-20T02:06:13;5.80;99.90
7196;DHT22;3639;51.308;5.624;2023-12-20T02:08:39;5.80;99.90
7196;DHT22;3639;51.308;5.624;2023-12-20T02:11:05;5.70;99.90
7196;DHT22;3639;51.308;5.624;2023-12-20T02:13:31;5.80;99.90
7196;DHT22;3639;51.308;5.624;2023-12-20T02:15:57;5.90;99.90
7196;DHT22;3639;51.308;5.624;2023-12-20T02:18:23;5.90;99.90
7196;DHT22;3639;51.308;5.624;2023-12-20T02:20:49;5.90;99.90
7196;DHT22;3639;51.308;5.624;2023-12-20T02:23:14;6.00;99.90
7196;DHT22;3639;51.308;5.624;2023-12-20T02:25:40;6.00;99.90
7196;DHT22;3639;51.308;5.624;2023-12-20T02:28:06;6.00;99.90
7196;DHT22;3639;51.308;5.624;2023-12-20T02:30:32;5.90;99.90
7196;DHT22;3639;51.308;5.624;2023-12-20T02:32:59;5.90;99.90
7196;DHT22;3639;51.308;5.624;2023-12-20T02:35:25;5.90;99.90
7196;DHT22;3639;51.308;5.624;2023-12-20T02:37:51;5.90;99.90
7196;DHT22;3639;51.308;5.624;2023-12-20T02:40:16;5.90;99.90
7196;DHT22;3639;51.308;5.624;2023-12-20T02:42:42;5.80;99.90
7196;DHT22;3639;51.308;5.624;2023-12-20T02:45:08;5.80;99.90
7196;DHT22;3639;51.308;5.624;2023-12-20T02:47:33;5.80;99.90
7196;DHT22;3639;51.308;5.624;2023-12-20T02:49:59;5.80;99.90
7196;DHT22;3639;51.308;5.624;2023-12-20T02:52:25;5.80;99.90
7196;DHT22;3639;51.308;5.624;2023-12-20T02:54:50;5.80;99.90
7196;DHT22;3639;51.308;5.624;2023-12-20T02:57:17;5.80;99.90
7196;DHT22;3639;51.308;5.624;2023-12-20T02:59:43;5.70;99.90
7196;DHT22;3639;51.308;5.624;2023-12-20T03:02:08;5.60;99.90
7196;DHT22;3639;51.308;5.624;2023-12-20T03:04:34;5.60;99.90
7196;DHT22;3639;51.308;5.624;2023-12-20T03:06:59;5.70;99.90
7196;DHT22;3639;51.308;5.624;2023-12-20T03:09:25;5.70;99.90
7196;DHT22;3639;51.308;5.624;2023-12-20T03:11:50;5.70;99.90
7196;DHT22;3639;51.308;5.624;2023-12-20T03:14:16;5.60;99.90
7196;DHT22;3639;51.308;5.624;2023-12-20T03:16:41;5.70;99.90
7196;DHT22;3639;51.308;5.624;2023-12-20T03:19:07;5.60;99.90
7196;DHT22;3639;51.308;5.624;2023-12-20T03:21:32;5.60;99.90
7196;DHT22;3639;51.308;5.624;2023-12-20T03:23:58;5.60;99.90
7196;DHT22;3639;51.308;5.624;2023-12-20T03:26:23;5.60;99.90
7196;DHT22;3639;51.308;5.624;2023-12-20T03:28:49;5.60;99.90
7196;DHT22;3639;51.308;5.624;2023-12-20T03:31:15;5.60;99.90
7196;DHT22;3639;51.308;5.624;2023-12-20T03:33:40;5.60;99.90
7196;DHT22;3639;51.308;5.624;2023-12-20T03:36:06;5.60;99.90
7196;DHT22;3639;51.308;5.624;2023-12-20T03:38:32;5.50;99.90
7196;DHT22;3639;51.308;5.624;2023-12-20T03:40:57;5.60;99.90
7196;DHT22;3639;51.308;5.624;2023-12-20T03:43:23;5.60;99.90
7196;DHT22;3639;51.308;5.624;2023-12-20T03:45:48;5.60;99.90
7196;DHT22;3639;51.308;5.624;2023-12-20T03:48:14;5.60;99.90
7196;DHT22;3639;51.308;5.624;2023-12-20T03:50:39;5.50;99.90
7196;DHT22;3639;51.308;5.624;2023-12-20T03:53:05;5.50;99.90
7196;DHT22;3639;51.308;5.624;2023-12-20T03:55:31;5.50;99.90
7196;DHT22;3639;51.308;5.624;2023-12-20T03:57:56;5.50;99.90
7196;DHT22;3639;51.308;5.624;2023-12-20T04:00:22;5.60;99.90
7196;DHT22;3639;51.308;5.624;2023-12-20T04:02:47;5.70;99.90
7196;DHT22;3639;51.308;5.624;2023-12-20T04:05:13;5.80;99.90
7196;DHT22;3639;51.308;5.624;2023-12-20T04:07:39;5.70;99.90
7196;DHT22;3639;51.308;5.624;2023-12-20T04:10:05;5.70;99.90
7196;DHT22;3639;51.308;5.624;2023-12-20T04:12:32;5.80;99.90
7196;DHT22;3639;51.308;5.624;2023-12-20T04:14:57;5.90;99.90
7196;DHT22;3639;51.308;5.624;2023-12-20T04:17:23;5.90;99.90
7196;DHT22;3639;51.308;5.624;2023-12-20T04:19:52;6.00;99.90
7196;DHT22;3639;51.308;5.624;2023-12-20T04:22:18;6.00;99.90
7196;DHT22;3639;51.308;5.624;2023-12-20T04:24:44;6.10;99.90
7196;DHT22;3639;51.308;5.624;2023-12-20T04:27:10;6.10;99.90
7196;DHT22;3639;51.308;5.624;2023-12-20T04:29:36;6.10;99.90
7196;DHT22;3639;51.308;5.624;2023-12-20T04:32:01;6.10;99.90
7196;DHT22;3639;51.308;5.624;2023-12-20T04:34:27;6.20;99.90
7196;DHT22;3639;51.308;5.624;2023-12-20T04:36:53;6.20;99.90
7196;DHT22;3639;51.308;5.624;2023-12-20T04:39:18;6.20;99.90
7196;DHT22;3639;51.308;5.624;2023-12-20T04:41:44;6.20;99.90
7196;DHT22;3639;51.308;5.624;2023-12-20T04:44:09;6.30;99.90
7196;DHT22;3639;51.308;5.624;2023-12-20T04:46:35;6.30;99.90
7196;DHT22;3639;51.308;5.624;2023-12-20T04:49:01;6.30;99.90
7196;DHT22;3639;51.308;5.624;2023-12-20T04:51:27;6.30;99.90
7196;DHT22;3639;51.308;5.624;2023-12-20T04:53:52;6.30;99.90
7196;DHT22;3639;51.308;5.624;2023-12-20T04:56:18;6.30;99.90
7196;DHT22;3639;51.308;5.624;2023-12-20T04:58:43;6.40;99.90
7196;DHT22;3639;51.308;5.624;2023-12-20T05:01:09;6.40;99.90
7196;DHT22;3639;51.308;5.624;2023-12-20T05:03:35;6.40;99.90
7196;DHT22;3639;51.308;5.624;2023-12-20T05:06:01;6.40;99.90
7196;DHT22;3639;51.308;5.624;2023-12-20T05:08:26;6.40;99.90
7196;DHT22;3639;51.308;5.624;2023-12-20T05:10:54;6.50;99.90
7196;DHT22;3639;51.308;5.624;2023-12-20T05:13:20;6.50;99.90
7196;DHT22;3639;51.308;5.624;2023-12-20T05:15:45;6.50;99.90
7196;DHT22;3639;51.308;5.624;2023-12-20T05:18:12;6.60;99.90
7196;DHT22;3639;51.308;5.624;2023-12-20T05:20:38;6.60;99.90
7196;DHT22;3639;51.308;5.624;2023-12-20T05:23:04;6.60;99.90
7196;DHT22;3639;51.308;5.624;2023-12-20T05:25:29;6.60;99.90
7196;DHT22;3639;51.308;5.624;2023-12-20T05:27:55;6.60;99.90
7196;DHT22;3639;51.308;5.624;2023-12-20T05:30:21;6.60;99.90
7196;DHT22;3639;51.308;5.624;2023-12-20T05:32:47;6.60;99.90
7196;DHT22;3639;51.308;5.624;2023-12-20T05:35:12;6.60;99.90
7196;DHT22;3639;51.308;5.624;2023-12-20T05:37:38;6.60;99.90
7196;DHT22;3639;51.308;5.624;2023-12-20T05:40:04;6.60;99.90
7196;DHT22;3639;51.308;5.624;2023-12-20T05:42:30;6.60;99.90
7196;DHT22;3639;51.308;5.624;2023-12-20T05:44:55;6.60;99.90
7196;DHT22;3639;51.308;5.624;2023-12-20T05:47:21;6.60;99.90
7196;DHT22;3639;51.308;5.624;2023-12-20T05:49:46;6.60;99.90
7196;DHT22;3639;51.308;5.624;2023-12-20T05:52:12;6.60;99.90
7196;DHT22;3639;51.308;5.624;2023-12-20T05:54:37;6.60;99.90
7196;DHT22;3639;51.308;5.624;2023-12-20T05:57:03;6.60;99.90
7196;DHT22;3639;51.308;5.624;2023-12-20T05:59:29;6.60;99.90
7196;DHT22;3639;51.308;5.624;2023-12-20T06:01:54;6.60;99.90
7196;DHT22;3639;51.308;5.624;2023-12-20T06:04:20;6.60;99.90
7196;DHT22;3639;51.308;5.624;2023-12-20T06:06:45;6.60;99.90
7196;DHT22;3639;51.308;5.624;2023-12-20T06:09:11;6.60;99.90
7196;DHT22;3639;51.308;5.624;2023-12-20T06:11:37;6.60;99.90
7196;DHT22;3639;51.308;5.624;2023-12-20T06:14:03;6.60;99.90
7196;DHT22;3639;51.308;5.624;2023-12-20T06:16:28;6.50;99.90
7196;DHT22;3639;51.308;5.624;2023-12-20T06:18:54;6.50;99.90
7196;DHT22;3639;51.308;5.624;2023-12-20T06:21:19;6.50;99.90
7196;DHT22;3639;51.308;5.624;2023-12-20T06:23:45;6.40;99.90
7196;DHT22;3639;51.308;5.624;2023-12-20T06:26:11;6.40;99.90
7196;DHT22;3639;51.308;5.624;2023-12-20T06:28:36;6.30;99.90
7196;DHT22;3639;51.308;5.624;2023-12-20T06:31:02;6.30;99.90
7196;DHT22;3639;51.308;5.624;2023-12-20T06:33:28;6.20;99.90
7196;DHT22;3639;51.308;5.624;2023-12-20T06:35:56;6.10;99.90
7196;DHT22;3639;51.308;5.624;2023-12-20T06:38:22;6.20;99.90
7196;DHT22;3639;51.308;5.624;2023-12-20T06:40:47;6.10;99.90
7196;DHT22;3639;51.308;5.624;2023-12-20T06:43:13;6.00;99.90
7196;DHT22;3639;51.308;5.624;2023-12-20T06:45:39;5.90;99.90
7196;DHT22;3639;51.308;5.624;2023-12-20T06:48:05;5.90;99.90
7196;DHT22;3639;51.308;5.624;2023-12-20T06:50:31;5.90;99.90
7196;DHT22;3639;51.308;5.624;2023-12-20T06:52:56;5.90;99.90
7196;DHT22;3639;51.308;5.624;2023-12-20T06:55:22;5.90;99.90
7196;DHT22;3639;51.308;5.624;2023-12-20T06:57:48;5.80;99.90
7196;DHT22;3639;51.308;5.624;2023-12-20T07:00:14;5.80;99.90
7196;DHT22;3639;51.308;5.624;2023-12-20T07:02:40;5.70;99.90
7196;DHT22;3639;51.308;5.624;2023-12-20T07:05:06;5.70;99.90
7196;DHT22;3639;51.308;5.624;2023-12-20T07:07:31;5.70;99.90
7196;DHT22;3639;51.308;5.624;2023-12-20T07:09:57;5.60;99.90
7196;DHT22;3639;51.308;5.624;2023-12-20T07:12:22;5.70;99.90
7196;DHT22;3639;51.308;5.624;2023-12-20T07:14:48;5.60;99.90
7196;DHT22;3639;51.308;5.624;2023-12-20T07:17:14;5.60;99.90
7196;DHT22;3639;51.308;5.624;2023-12-20T07:19:41;5.60;99.90
7196;DHT22;3639;51.308;5.624;2023-12-20T07:22:06;5.60;99.90
7196;DHT22;3639;51.308;5.624;2023-12-20T07:24:38;5.50;99.90
7196;DHT22;3639;51.308;5.624;2023-12-20T07:27:04;5.50;99.90
7196;DHT22;3639;51.308;5.624;2023-12-20T07:29:29;5.40;99.90
7196;DHT22;3639;51.308;5.624;2023-12-20T07:31:55;5.40;99.90
7196;DHT22;3639;51.308;5.624;2023-12-20T07:34:21;5.50;99.90
7196;DHT22;3639;51.308;5.624;2023-12-20T07:36:46;5.50;99.90
7196;DHT22;3639;51.308;5.624;2023-12-20T07:39:12;5.50;99.90
7196;DHT22;3639;51.308;5.624;2023-12-20T07:41:37;5.40;99.90
7196;DHT22;3639;51.308;5.624;2023-12-20T07:44:04;5.40;99.90
7196;DHT22;3639;51.308;5.624;2023-12-20T07:46:30;5.40;99.90
7196;DHT22;3639;51.308;5.624;2023-12-20T07:48:55;5.40;99.90
7196;DHT22;3639;51.308;5.624;2023-12-20T07:51:21;5.40;99.90
7196;DHT22;3639;51.308;5.624;2023-12-20T07:53:47;5.50;99.90
7196;DHT22;3639;51.308;5.624;2023-12-20T07:56:19;5.50;99.90
7196;DHT22;3639;51.308;5.624;2023-12-20T07:58:45;5.60;99.90
7196;DHT22;3639;51.308;5.624;2023-12-20T08:01:12;5.60;99.90
7196;DHT22;3639;51.308;5.624;2023-12-20T08:03:38;5.60;99.90
7196;DHT22;3639;51.308;5.624;2023-12-20T08:06:04;5.70;99.90
7196;DHT22;3639;51.308;5.624;2023-12-20T08:08:30;5.80;99.90
7196;DHT22;3639;51.308;5.624;2023-12-20T08:10:55;5.80;99.90
7196;DHT22;3639;51.308;5.624;2023-12-20T08:13:23;5.90;99.90
7196;DHT22;3639;51.308;5.624;2023-12-20T08:15:51;5.90;99.90
7196;DHT22;3639;51.308;5.624;2023-12-20T08:18:17;6.00;99.90
7196;DHT22;3639;51.308;5.624;2023-12-20T08:20:43;6.10;99.90
7196;DHT22;3639;51.308;5.624;2023-12-20T08:23:08;6.10;99.90
7196;DHT22;3639;51.308;5.624;2023-12-20T08:25:34;6.20;99.90
7196;DHT22;3639;51.308;5.624;2023-12-20T08:27:59;6.20;99.90
7196;DHT22;3639;51.308;5.624;2023-12-20T08:30:26;6.20;99.90
7196;DHT22;3639;51.308;5.624;2023-12-20T08:32:51;6.20;99.90
7196;DHT22;3639;51.308;5.624;2023-12-20T08:35:17;6.30;99.90
7196;DHT22;3639;51.308;5.624;2023-12-20T08:37:44;6.30;99.90
7196;DHT22;3639;51.308;5.624;2023-12-20T08:40:09;6.30;99.90
7196;DHT22;3639;51.308;5.624;2023-12-20T08:42:35;6.30;99.90
7196;DHT22;3639;51.308;5.624;2023-12-20T08:45:01;6.30;99.90
7196;DHT22;3639;51.308;5.624;2023-12-20T08:47:26;6.30;99.90
7196;DHT22;3639;51.308;5.624;2023-12-20T08:49:52;6.30;99.90
7196;DHT22;3639;51.308;5.624;2023-12-20T08:52:22;6.30;99.90
7196;DHT22;3639;51.308;5.624;2023-12-20T08:54:49;6.30;99.90
7196;DHT22;3639;51.308;5.624;2023-12-20T08:57:19;6.30;99.90
7196;DHT22;3639;51.308;5.624;2023-12-20T08:59:46;6.40;99.90
7196;DHT22;3639;51.308;5.624;2023-12-20T09:02:12;6.40;99.90
7196;DHT22;3639;51.308;5.624;2023-12-20T09:04:37;6.40;99.90
7196;DHT22;3639;51.308;5.624;2023-12-20T09:07:03;6.40;99.90
7196;DHT22;3639;51.308;5.624;2023-12-20T09:09:29;6.40;99.90
7196;DHT22;3639;51.308;5.624;2023-12-20T09:11:54;6.40;99.90
7196;DHT22;3639;51.308;5.624;2023-12-20T09:14:20;6.40;99.90
7196;DHT22;3639;51.308;5.624;2023-12-20T09:16:45;6.40;99.90
7196;DHT22;3639;51.308;5.624;2023-12-20T09:19:11;6.40;99.90
7196;DHT22;3639;51.308;5.624;2023-12-20T09:21:36;6.50;99.90
7196;DHT22;3639;51.308;5.624;2023-12-20T09:24:02;6.50;99.90
7196;DHT22;3639;51.308;5.624;2023-12-20T09:26:28;6.60;99.90
7196;DHT22;3639;51.308;5.624;2023-12-20T09:28:53;6.60;99.90
7196;DHT22;3639;51.308;5.624;2023-12-20T09:31:19;6.70;99.90
7196;DHT22;3639;51.308;5.624;2023-12-20T09:33:44;6.70;99.90
7196;DHT22;3639;51.308;5.624;2023-12-20T09:36:10;6.80;99.90
7196;DHT22;3639;51.308;5.624;2023-12-20T09:38:36;6.80;99.90
7196;DHT22;3639;51.308;5.624;2023-12-20T09:41:01;6.90;99.90
7196;DHT22;3639;51.308;5.624;2023-12-20T09:43:30;6.90;99.90
7196;DHT22;3639;51.308;5.624;2023-12-20T09:45:59;6.90;99.90
7196;DHT22;3639;51.308;5.624;2023-12-20T09:48:26;6.90;99.90
7196;DHT22;3639;51.308;5.624;2023-12-20T09:50:53;6.90;99.90
7196;DHT22;3639;51.308;5.624;2023-12-20T09:53:19;6.90;99.90
7196;DHT22;3639;51.308;5.624;2023-12-20T09:55:45;7.00;99.90
7196;DHT22;3639;51.308;5.624;2023-12-20T09:58:11;7.00;99.90
7196;DHT22;3639;51.308;5.624;2023-12-20T10:00:36;7.00;99.90
7196;DHT22;3639;51.308;5.624;2023-12-20T10:03:03;7.00;99.90
7196;DHT22;3639;51.308;5.624;2023-12-20T10:05:32;7.10;99.90
7196;DHT22;3639;51.308;5.624;2023-12-20T10:07:58;7.10;99.90
7196;DHT22;3639;51.308;5.624;2023-12-20T10:10:24;7.10;99.90
7196;DHT22;3639;51.308;5.624;2023-12-20T10:13:08;7.20;99.90
7196;DHT22;3639;51.308;5.624;2023-12-20T10:15:35;7.20;99.90
7196;DHT22;3639;51.308;5.624;2023-12-20T10:18:01;7.20;99.90
7196;DHT22;3639;51.308;5.624;2023-12-20T10:20:28;7.20;99.90
7196;DHT22;3639;51.308;5.624;2023-12-20T10:23:00;7.20;99.90
7196;DHT22;3639;51.308;5.624;2023-12-20T10:25:26;7.20;99.90
7196;DHT22;3639;51.308;5.624;2023-12-20T10:28:12;7.20;99.90
7196;DHT22;3639;51.308;5.624;2023-12-20T10:30:39;7.20;99.90
7196;DHT22;3639;51.308;5.624;2023-12-20T10:33:09;7.30;99.90
7196;DHT22;3639;51.308;5.624;2023-12-20T10:35:39;7.30;99.90
7196;DHT22;3639;51.308;5.624;2023-12-20T10:38:06;7.30;99.90
7196;DHT22;3639;51.308;5.624;2023-12-20T10:40:35;7.30;99.90
7196;DHT22;3639;51.308;5.624;2023-12-20T10:43:04;7.30;99.90
7196;DHT22;3639;51.308;5.624;2023-12-20T10:45:30;7.30;99.90
7196;DHT22;3639;51.308;5.624;2023-12-20T10:47:56;7.40;99.90
7196;DHT22;3639;51.308;5.624;2023-12-20T10:50:25;7.40;99.90
7196;DHT22;3639;51.308;5.624;2023-12-20T10:52:51;7.40;99.90
7196;DHT22;3639;51.308;5.624;2023-12-20T10:55:23;7.40;99.90
7196;DHT22;3639;51.308;5.624;2023-12-20T10:58:08;7.40;99.90
7196;DHT22;3639;51.308;5.624;2023-12-20T11:00:40;7.40;99.90
7196;DHT22;3639;51.308;5.624;2023-12-20T11:03:09;7.40;99.90
7196;DHT22;3639;51.308;5.624;2023-12-20T11:05:50;7.40;99.90
7196;DHT22;3639;51.308;5.624;2023-12-20T11:08:41;7.40;99.90
7196;DHT22;3639;51.308;5.624;2023-12-20T11:11:21;7.40;99.90
7196;DHT22;3639;51.308;5.624;2023-12-20T11:14:03;7.40;99.90
7196;DHT22;3639;51.308;5.624;2023-12-20T11:16:32;7.40;99.90
7196;DHT22;3639;51.308;5.624;2023-12-20T11:18:58;7.40;99.90
7196;DHT22;3639;51.308;5.624;2023-12-20T11:21:29;7.50;99.90
7196;DHT22;3639;51.308;5.624;2023-12-20T11:23:55;7.50;99.90
7196;DHT22;3639;51.308;5.624;2023-12-20T11:26:27;7.50;99.90
7196;DHT22;3639;51.308;5.624;2023-12-20T11:31:55;7.50;99.90
7196;DHT22;3639;51.308;5.624;2023-12-20T11:34:21;7.50;99.90
7196;DHT22;3639;51.308;5.624;2023-12-20T11:36:46;7.50;99.90
7196;DHT22;3639;51.308;5.624;2023-12-20T11:39:12;7.50;99.90
7196;DHT22;3639;51.308;5.624;2023-12-20T11:41:44;7.60;99.90
7196;DHT22;3639;51.308;5.624;2023-12-20T11:44:10;7.60;99.90
7196;DHT22;3639;51.308;5.624;2023-12-20T11:46:37;7.60;99.90
7196;DHT22;3639;51.308;5.624;2023-12-20T11:49:02;7.60;99.90
7196;DHT22;3639;51.308;5.624;2023-12-20T11:51:28;7.60;99.90
7196;DHT22;3639;51.308;5.624;2023-12-20T11:53:54;7.60;99.90
7196;DHT22;3639;51.308;5.624;2023-12-20T11:56:19;7.60;99.90
7196;DHT22;3639;51.308;5.624;2023-12-20T11:58:45;7.60;99.90
7196;DHT22;3639;51.308;5.624;2023-12-20T12:01:11;7.60;99.90
7196;DHT22;3639;51.308;5.624;2023-12-20T12:03:36;7.60;99.90
7196;DHT22;3639;51.308;5.624;2023-12-20T12:06:02;7.60;99.90
7196;DHT22;3639;51.308;5.624;2023-12-20T12:08:29;7.60;99.90
7196;DHT22;3639;51.308;5.624;2023-12-20T12:10:55;7.60;99.90
7196;DHT22;3639;51.308;5.624;2023-12-20T12:13:21;7.60;99.90
7196;DHT22;3639;51.308;5.624;2023-12-20T12:15:48;7.60;99.90
7196;DHT22;3639;51.308;5.624;2023-12-20T12:18:16;7.60;99.90
7196;DHT22;3639;51.308;5.624;2023-12-20T12:20:42;7.70;99.90
7196;DHT22;3639;51.308;5.624;2023-12-20T12:23:07;7.70;99.90
7196;DHT22;3639;51.308;5.624;2023-12-20T12:25:35;7.60;99.90
7196;DHT22;3639;51.308;5.624;2023-12-20T12:28:02;7.60;99.90
7196;DHT22;3639;51.308;5.624;2023-12-20T12:30:28;7.60;99.90
7196;DHT22;3639;51.308;5.624;2023-12-20T12:32:57;7.60;99.90
7196;DHT22;3639;51.308;5.624;2023-12-20T12:35:23;7.60;99.90
7196;DHT22;3639;51.308;5.624;2023-12-20T12:37:49;7.70;99.90
7196;DHT22;3639;51.308;5.624;2023-12-20T12:40:17;7.70;99.90
7196;DHT22;3639;51.308;5.624;2023-12-20T12:42:44;7.70;99.90
7196;DHT22;3639;51.308;5.624;2023-12-20T12:45:09;7.70;99.90
7196;DHT22;3639;51.308;5.624;2023-12-20T12:47:37;7.70;99.90
7196;DHT22;3639;51.308;5.624;2023-12-20T12:50:03;7.80;99.90
7196;DHT22;3639;51.308;5.624;2023-12-20T12:52:28;7.80;99.90
7196;DHT22;3639;51.308;5.624;2023-12-20T12:54:54;7.90;99.90
7196;DHT22;3639;51.308;5.624;2023-12-20T12:57:19;8.00;99.90
7196;DHT22;3639;51.308;5.624;2023-12-20T12:59:45;8.00;99.90
7196;DHT22;3639;51.308;5.624;2023-12-20T13:02:15;8.00;99.90
7196;DHT22;3639;51.308;5.624;2023-12-20T13:04:41;8.10;99.90
7196;DHT22;3639;51.308;5.624;2023-12-20T13:07:07;8.10;99.90
7196;DHT22;3639;51.308;5.624;2023-12-20T13:09:33;8.10;99.90
7196;DHT22;3639;51.308;5.624;2023-12-20T13:11:58;8.10;99.90
7196;DHT22;3639;51.308;5.624;2023-12-20T13:14:24;8.10;99.90
7196;DHT22;3639;51.308;5.624;2023-12-20T13:16:50;8.10;99.90
7196;DHT22;3639;51.308;5.624;2023-12-20T13:19:16;8.10;99.90
7196;DHT22;3639;51.308;5.624;2023-12-20T13:21:41;8.10;99.90
7196;DHT22;3639;51.308;5.624;2023-12-20T13:24:07;8.10;99.90
7196;DHT22;3639;51.308;5.624;2023-12-20T13:26:33;8.10;99.90
7196;DHT22;3639;51.308;5.624;2023-12-20T13:28:58;8.20;99.90
7196;DHT22;3639;51.308;5.624;2023-12-20T13:31:24;8.20;99.90
7196;DHT22;3639;51.308;5.624;2023-12-20T13:33:53;8.20;99.90
7196;DHT22;3639;51.308;5.624;2023-12-20T13:36:18;8.20;99.90
7196;DHT22;3639;51.308;5.624;2023-12-20T13:38:44;8.10;99.90
7196;DHT22;3639;51.308;5.624;2023-12-20T13:41:10;8.10;99.90
7196;DHT22;3639;51.308;5.624;2023-12-20T13:43:35;8.10;99.90
7196;DHT22;3639;51.308;5.624;2023-12-20T13:46:01;8.10;99.90
7196;DHT22;3639;51.308;5.624;2023-12-20T13:48:27;8.10;99.90
7196;DHT22;3639;51.308;5.624;2023-12-20T13:50:52;8.10;99.90
7196;DHT22;3639;51.308;5.624;2023-12-20T13:53:18;8.10;99.90
7196;DHT22;3639;51.308;5.624;2023-12-20T13:55:44;8.10;99.90
7196;DHT22;3639;51.308;5.624;2023-12-20T13:58:10;8.10;99.90
7196;DHT22;3639;51.308;5.624;2023-12-20T14:00:36;8.20;99.90
7196;DHT22;3639;51.308;5.624;2023-12-20T14:03:03;8.20;99.90
7196;DHT22;3639;51.308;5.624;2023-12-20T14:05:28;8.20;99.90
7196;DHT22;3639;51.308;5.624;2023-12-20T14:07:55;8.20;99.90
7196;DHT22;3639;51.308;5.624;2023-12-20T14:10:23;8.20;99.90
7196;DHT22;3639;51.308;5.624;2023-12-20T14:12:49;8.20;99.90
7196;DHT22;3639;51.308;5.624;2023-12-20T14:15:14;8.20;99.90
7196;DHT22;3639;51.308;5.624;2023-12-20T14:17:40;8.20;99.90
7196;DHT22;3639;51.308;5.624;2023-12-20T14:20:09;8.10;99.90
7196;DHT22;3639;51.308;5.624;2023-12-20T14:22:36;8.10;99.90
7196;DHT22;3639;51.308;5.624;2023-12-20T14:25:04;8.20;99.90
7196;DHT22;3639;51.308;5.624;2023-12-20T14:27:30;8.20;99.90
7196;DHT22;3639;51.308;5.624;2023-12-20T14:29:55;8.10;99.90
7196;DHT22;3639;51.308;5.624;2023-12-20T14:32:21;8.10;99.90
7196;DHT22;3639;51.308;5.624;2023-12-20T14:34:46;8.10;99.90
7196;DHT22;3639;51.308;5.624;2023-12-20T14:37:12;8.10;99.90
7196;DHT22;3639;51.308;5.624;2023-12-20T14:39:38;8.10;99.90
7196;DHT22;3639;51.308;5.624;2023-12-20T14:42:10;8.10;99.90
7196;DHT22;3639;51.308;5.624;2023-12-20T14:44:41;8.20;99.90
7196;DHT22;3639;51.308;5.624;2023-12-20T14:47:07;8.20;99.90
7196;DHT22;3639;51.308;5.624;2023-12-20T14:49:33;8.20;99.90
7196;DHT22;3639;51.308;5.624;2023-12-20T14:51:58;8.20;99.90
7196;DHT22;3639;51.308;5.624;2023-12-20T14:54:25;8.20;99.90
7196;DHT22;3639;51.308;5.624;2023-12-20T14:56:50;8.20;99.90
7196;DHT22;3639;51.308;5.624;2023-12-20T14:59:16;8.20;99.90
7196;DHT22;3639;51.308;5.624;2023-12-20T15:01:42;8.20;99.90
7196;DHT22;3639;51.308;5.624;2023-12-20T15:04:09;8.20;99.90
7196;DHT22;3639;51.308;5.624;2023-12-20T15:06:35;8.20;99.90
7196;DHT22;3639;51.308;5.624;2023-12-20T15:09:01;8.20;99.90
7196;DHT22;3639;51.308;5.624;2023-12-20T15:11:30;8.20;99.90
7196;DHT22;3639;51.308;5.624;2023-12-20T15:13:56;8.20;99.90
7196;DHT22;3639;51.308;5.624;2023-12-20T15:16:22;8.20;99.90
7196;DHT22;3639;51.308;5.624;2023-12-20T15:18:48;8.10;99.90
7196;DHT22;3639;51.308;5.624;2023-12-20T15:21:15;8.20;99.90
7196;DHT22;3639;51.308;5.624;2023-12-20T15:23:40;8.20;99.90
7196;DHT22;3639;51.308;5.624;2023-12-20T15:26:16;8.20;99.90
7196;DHT22;3639;51.308;5.624;2023-12-20T15:28:42;8.20;99.90
7196;DHT22;3639;51.308;5.624;2023-12-20T15:31:07;8.20;99.90
7196;DHT22;3639;51.308;5.624;2023-12-20T15:33:33;8.30;99.90
7196;DHT22;3639;51.308;5.624;2023-12-20T15:35:59;8.20;99.90
7196;DHT22;3639;51.308;5.624;2023-12-20T15:38:24;8.30;99.90
7196;DHT22;3639;51.308;5.624;2023-12-20T15:40:53;8.30;99.90
7196;DHT22;3639;51.308;5.624;2023-12-20T15:43:18;8.20;99.90
7196;DHT22;3639;51.308;5.624;2023-12-20T15:45:44;8.20;99.90
7196;DHT22;3639;51.308;5.624;2023-12-20T15:48:11;8.30;99.90
7196;DHT22;3639;51.308;5.624;2023-12-20T15:50:43;8.30;99.90
7196;DHT22;3639;51.308;5.624;2023-12-20T15:53:08;8.20;99.90
7196;DHT22;3639;51.308;5.624;2023-12-20T15:55:34;8.20;99.90
7196;DHT22;3639;51.308;5.624;2023-12-20T15:57:59;8.20;99.90
7196;DHT22;3639;51.308;5.624;2023-12-20T16:00:25;8.30;99.90
7196;DHT22;3639;51.308;5.624;2023-12-20T16:02:51;8.20;99.90
7196;DHT22;3639;51.308;5.624;2023-12-20T16:05:16;8.20;99.90
7196;DHT22;3639;51.308;5.624;2023-12-20T16:07:42;8.20;99.90
7196;DHT22;3639;51.308;5.624;2023-12-20T16:10:08;8.20;99.90
7196;DHT22;3639;51.308;5.624;2023-12-20T16:12:33;8.30;99.90
7196;DHT22;3639;51.308;5.624;2023-12-20T16:14:59;8.20;99.90